Time;durP1;ratioP1;P1;durP2;ratioP2;P2;SDS_P1;SDS_P2;PMS_P1;PMS_P2;Temp;Humidity;BMP_temperature;BMP_pressure;BME280_temperature;BME280_humidity;BME280_pressure;Samples;Min_cycle;Max_cycle;Signal;HPM_P1;HPM_P2
2022/03/30 00:00:57;;;;;;;14.93;8.07;;;24.10;39.20;;;;;;6154404;28;80990;-64
2022/03/30 00:03:57;;;;;;;14.38;8.93;;;24.10;39.20;;;;;;6143535;28;80627;-65
2022/03/30 00:06:58;;;;;;;14.68;9.40;;;24.10;38.90;;;;;;6141549;28;80485;-65
2022/03/30 00:09:58;;;;;;;12.38;7.55;;;24.10;38.90;;;;;;6141353;28;80440;-65
2022/03/30 00:12:59;;;;;;;15.15;7.90;;;24.10;39.00;;;;;;6159411;28;81649;-65
2022/03/30 00:16:00;;;;;;;11.73;7.80;;;24.10;39.00;;;;;;6144191;28;81575;-65
2022/03/30 00:19:00;;;;;;;12.45;8.18;;;24.10;39.00;;;;;;6148260;28;87688;-65
2022/03/30 00:22:01;;;;;;;13.85;8.98;;;24.10;39.00;;;;;;6138118;28;80488;-65
2022/03/30 00:25:01;;;;;;;13.77;7.20;;;24.10;39.10;;;;;;6156347;28;80529;-65
2022/03/30 00:28:02;;;;;;;11.75;8.25;;;24.10;39.00;;;;;;6135794;28;80979;-66
2022/03/30 00:31:03;;;;;;;12.98;8.02;;;24.10;39.00;;;;;;6145786;28;80503;-65
2022/03/30 00:34:03;;;;;;;14.05;7.88;;;24.10;38.90;;;;;;6154791;28;80441;-65
2022/03/30 00:37:04;;;;;;;15.07;8.30;;;24.10;38.90;;;;;;6153213;28;81480;-65
2022/03/30 00:40:04;;;;;;;14.00;8.18;;;24.10;38.90;;;;;;6157885;28;80358;-65
2022/03/30 00:43:05;;;;;;;12.77;8.63;;;24.10;38.70;;;;;;6134938;28;80422;-65
2022/03/30 00:46:05;;;;;;;12.15;7.28;;;24.10;38.80;;;;;;6155080;28;84764;-65
2022/03/30 00:49:06;;;;;;;11.68;7.47;;;24.10;38.70;;;;;;6158823;28;80710;-64
2022/03/30 00:52:06;;;;;;;13.90;8.40;;;24.00;38.80;;;;;;6157660;28;80705;-64
2022/03/30 00:55:07;;;;;;;11.15;7.00;;;24.00;38.80;;;;;;6159118;28;80400;-64
2022/03/30 00:58:08;;;;;;;12.00;8.23;;;24.00;38.80;;;;;;6158925;28;80431;-66
2022/03/30 01:01:09;;;;;;;15.10;7.93;;;24.00;38.70;;;;;;6158984;28;80467;-65
2022/03/30 01:04:09;;;;;;;10.77;7.28;;;24.00;39.40;;;;;;6154503;28;82317;-65
2022/03/30 01:07:10;;;;;;;15.88;7.97;;;24.00;38.70;;;;;;6158678;28;80421;-65
2022/03/30 01:10:10;;;;;;;11.32;7.55;;;24.00;38.80;;;;;;6158771;28;80132;-65
2022/03/30 01:13:11;;;;;;;12.75;7.65;;;24.00;38.70;;;;;;6159009;28;81156;-66
2022/03/30 01:16:11;;;;;;;11.57;7.72;;;24.00;38.70;;;;;;6159150;28;80379;-64
2022/03/30 01:19:12;;;;;;;12.73;7.55;;;24.00;38.60;;;;;;6158400;28;81033;-64
2022/03/30 01:22:12;;;;;;;14.27;8.32;;;24.00;38.80;;;;;;6157356;28;81707;-64
2022/03/30 01:25:13;;;;;;;15.20;7.93;;;24.00;38.70;;;;;;6149711;28;80461;-64
2022/03/30 01:28:14;;;;;;;11.70;7.38;;;24.00;38.70;;;;;;6136318;28;80423;-65
2022/03/30 01:34:34;;;;;;;12.75;7.28;;;24.00;38.60;;;;;;6140697;28;80006;-64
2022/03/30 01:37:34;;;;;;;10.88;7.32;;;24.00;38.50;;;;;;6139802;28;80494;-63
2022/03/30 01:40:35;;;;;;;10.73;7.32;;;24.00;38.60;;;;;;6138592;28;80816;-63
2022/03/30 01:43:35;;;;;;;13.73;7.40;;;24.00;38.60;;;;;;6149911;28;86199;-63
2022/03/30 01:46:36;;;;;;;14.95;7.28;;;24.00;38.50;;;;;;6159623;28;80606;-63
2022/03/30 01:49:37;;;;;;;13.30;7.40;;;24.00;38.50;;;;;;6162226;28;81575;-63
2022/03/30 01:52:37;;;;;;;10.00;7.32;;;24.00;38.70;;;;;;6147269;28;80928;-63
2022/03/30 01:55:38;;;;;;;12.35;8.25;;;24.00;38.50;;;;;;6161206;28;80633;-63
2022/03/30 01:58:38;;;;;;;14.65;7.35;;;24.00;38.50;;;;;;6138414;28;80516;-63
2022/03/30 02:01:39;;;;;;;10.13;7.32;;;24.00;38.50;;;;;;6138459;28;80447;-63
2022/03/30 02:04:39;;;;;;;11.25;6.85;;;24.00;38.30;;;;;;6137740;28;80523;-64
2022/03/30 02:07:40;;;;;;;10.27;6.38;;;24.00;38.80;;;;;;6138909;28;81424;-63
2022/03/30 02:10:40;;;;;;;9.32;6.30;;;24.00;39.00;;;;;;6158556;28;88047;-63
2022/03/30 02:13:42;;;;;;;14.25;7.60;;;24.00;38.90;;;;;;6152906;28;80326;-63
2022/03/30 02:16:43;;;;;;;11.07;7.43;;;24.00;38.60;;;;;;6148722;28;80457;-63
2022/03/30 02:19:44;;;;;;;11.98;7.13;;;24.00;39.10;;;;;;6144616;28;80270;-63
2022/03/30 02:22:44;;;;;;;12.75;7.28;;;24.10;38.80;;;;;;6152147;28;81165;-63
2022/03/30 02:25:45;;;;;;;11.98;7.55;;;24.00;38.60;;;;;;6158772;28;80337;-63
2022/03/30 02:28:51;;;;;;;10.38;6.60;;;24.00;38.90;;;;;;6147258;28;82625;-64
2022/03/30 02:31:51;;;;;;;11.45;7.07;;;24.00;38.90;;;;;;6136331;28;81788;-64
2022/03/30 02:34:52;;;;;;;8.68;6.13;;;24.00;38.80;;;;;;6149463;28;81415;-64
2022/03/30 02:37:55;;;;;;;9.80;6.50;;;24.00;38.60;;;;;;6161625;28;81640;-64
2022/03/30 02:40:55;;;;;;;11.80;6.80;;;24.00;38.70;;;;;;6160441;28;81677;-64
2022/03/30 02:43:56;;;;;;;11.57;7.20;;;24.00;38.70;;;;;;6139359;28;80461;-64
2022/03/30 02:46:57;;;;;;;12.52;6.88;;;24.00;39.00;;;;;;6160815;28;81215;-65
2022/03/30 02:49:57;;;;;;;14.70;7.43;;;24.00;38.60;;;;;;6161262;28;80396;-65
2022/03/30 02:52:58;;;;;;;13.48;8.10;;;24.00;38.80;;;;;;6154936;28;80788;-64
2022/03/30 02:55:58;;;;;;;11.25;7.35;;;24.00;38.90;;;;;;6154543;28;80484;-65
2022/03/30 02:58:59;;;;;;;10.30;6.75;;;24.00;39.00;;;;;;6137526;28;80157;-67
2022/03/30 03:02:00;;;;;;;14.02;7.22;;;24.00;39.10;;;;;;6149079;28;81284;-66
2022/03/30 03:05:01;;;;;;;13.90;7.32;;;24.00;39.10;;;;;;6154269;28;80846;-65
2022/03/30 03:08:01;;;;;;;14.10;8.27;;;24.00;39.10;;;;;;6159158;28;80550;-64
2022/03/30 03:11:02;;;;;;;12.10;6.72;;;24.00;39.00;;;;;;6160982;28;81776;-65
2022/03/30 03:14:05;;;;;;;13.82;7.47;;;24.00;38.70;;;;;;6142556;28;80700;-67
2022/03/30 03:17:06;;;;;;;13.13;8.02;;;24.00;38.90;;;;;;6158197;28;81592;-67
2022/03/30 03:20:07;;;;;;;10.85;7.32;;;24.00;38.70;;;;;;6139645;28;85402;-67
2022/03/30 03:23:08;;;;;;;12.25;8.18;;;24.00;38.50;;;;;;6142062;28;80394;-67
2022/03/30 03:26:08;;;;;;;14.85;7.88;;;24.00;38.40;;;;;;6152075;28;80375;-66
2022/03/30 03:29:09;;;;;;;13.70;8.05;;;24.00;38.30;;;;;;6159613;28;81044;-67
2022/03/30 03:32:09;;;;;;;12.60;8.10;;;24.10;38.20;;;;;;6142372;28;80789;-67
2022/03/30 03:35:10;;;;;;;18.55;8.13;;;24.10;38.20;;;;;;6141534;28;81019;-67
2022/03/30 03:38:10;;;;;;;13.35;7.88;;;24.10;38.70;;;;;;6159066;28;81789;-66
2022/03/30 03:41:11;;;;;;;16.98;8.48;;;24.10;38.00;;;;;;6149292;28;81594;-65
2022/03/30 03:44:12;;;;;;;12.35;7.95;;;24.10;37.90;;;;;;6174821;28;82697;-68
2022/03/30 03:47:12;;;;;;;18.05;8.18;;;24.20;37.90;;;;;;6143602;28;80625;-67
2022/03/30 03:50:13;;;;;;;15.80;8.30;;;24.20;37.80;;;;;;6148364;28;80480;-65
2022/03/30 03:53:13;;;;;;;14.60;8.65;;;24.20;37.80;;;;;;6158885;28;80561;-65
2022/03/30 03:56:14;;;;;;;14.05;7.28;;;24.20;37.80;;;;;;6151464;28;80335;-65
2022/03/30 03:59:14;;;;;;;14.60;8.55;;;24.20;37.70;;;;;;6150669;28;81516;-65
2022/03/30 04:02:15;;;;;;;12.90;7.93;;;24.30;37.70;;;;;;6148451;28;81806;-66
2022/03/30 04:05:16;;;;;;;17.15;8.27;;;24.30;37.60;;;;;;6156646;28;87537;-66
2022/03/30 04:08:16;;;;;;;12.25;8.20;;;24.30;37.60;;;;;;6153905;28;81008;-64
2022/03/30 04:11:17;;;;;;;15.70;7.68;;;24.30;37.70;;;;;;6157186;28;80509;-65
2022/03/30 04:14:17;;;;;;;12.70;7.65;;;24.40;37.60;;;;;;6143610;28;80418;-67
2022/03/30 04:17:18;;;;;;;16.48;8.82;;;24.40;37.60;;;;;;6152025;28;81809;-66
2022/03/30 04:20:18;;;;;;;16.70;8.85;;;24.40;37.70;;;;;;6158883;28;80906;-64
2022/03/30 04:23:19;;;;;;;17.08;7.93;;;24.40;37.60;;;;;;6158006;28;80401;-64
2022/03/30 04:26:19;;;;;;;18.58;8.60;;;24.40;37.50;;;;;;6157944;28;80446;-69
2022/03/30 04:29:20;;;;;;;14.07;9.48;;;24.40;37.40;;;;;;6159443;28;80384;-64
2022/03/30 04:32:20;;;;;;;17.23;10.32;;;24.40;37.60;;;;;;6157336;28;82434;-64
2022/03/30 04:35:27;;;;;;;20.17;10.18;;;24.30;37.20;;;;;;6150907;28;84207;-65
2022/03/30 04:38:28;;;;;;;15.70;9.55;;;24.20;37.90;;;;;;6132656;28;83181;-63
2022/03/30 04:41:28;;;;;;;21.88;9.52;;;24.20;38.10;;;;;;6155916;28;81696;-63
2022/03/30 04:44:29;;;;;;;21.15;8.95;;;24.20;38.10;;;;;;6134916;28;80275;-65
2022/03/30 04:47:32;;;;;;;16.90;8.52;;;24.20;38.00;;;;;;6149387;28;80556;-65
2022/03/30 04:50:32;;;;;;;21.35;8.90;;;24.30;38.70;;;;;;6157174;28;80720;-64
2022/03/30 04:53:33;;;;;;;22.75;9.65;;;24.30;39.00;;;;;;6153143;28;80637;-71
2022/03/30 04:56:33;;;;;;;19.90;9.35;;;24.30;39.00;;;;;;6157445;28;80584;-64
2022/03/30 04:59:34;;;;;;;24.98;10.15;;;24.30;39.10;;;;;;6136004;28;80294;-63
2022/03/30 05:02:34;;;;;;;15.45;9.23;;;24.30;39.00;;;;;;6146537;28;83118;-66
2022/03/30 05:05:35;;;;;;;18.50;9.20;;;24.30;38.90;;;;;;6133820;28;82955;-64
2022/03/30 05:08:36;;;;;;;21.55;9.32;;;24.30;39.10;;;;;;6139621;28;80631;-64
2022/03/30 05:11:36;;;;;;;16.23;9.80;;;24.30;39.20;;;;;;6158539;28;80401;-64
2022/03/30 05:14:37;;;;;;;20.80;10.82;;;24.30;38.90;;;;;;6158776;28;81482;-64
2022/03/30 05:17:37;;;;;;;15.32;9.13;;;24.30;39.00;;;;;;6151538;28;83103;-64
2022/03/30 05:20:38;;;;;;;21.45;9.43;;;24.30;39.50;;;;;;6153252;28;82951;-64
2022/03/30 05:23:39;;;;;;;20.02;9.90;;;24.30;39.30;;;;;;6134716;28;80748;-62
2022/03/30 05:26:39;;;;;;;16.02;9.27;;;24.30;39.50;;;;;;6134802;28;80484;-72
2022/03/30 05:29:40;;;;;;;15.00;8.43;;;24.30;39.10;;;;;;6155600;28;80807;-72
2022/03/30 05:32:44;;;;;;;22.17;9.77;;;24.30;39.20;;;;;;6158919;28;80510;-68
2022/03/30 05:35:48;;;;;;;20.90;9.65;;;24.30;38.60;;;;;;6144584;28;80354;-63
2022/03/30 05:38:50;;;;;;;16.90;9.75;;;24.30;38.70;;;;;;6144435;28;80848;-69
2022/03/30 05:41:52;;;;;;;15.43;8.40;;;24.30;39.50;;;;;;6154609;28;80664;-66
2022/03/30 05:44:53;;;;;;;19.58;9.18;;;24.30;39.80;;;;;;6148594;28;81722;-65
2022/03/30 05:47:53;;;;;;;20.90;10.18;;;24.30;39.20;;;;;;6145090;28;80437;-71
2022/03/30 05:50:55;;;;;;;13.45;8.05;;;24.30;39.50;;;;;;6139396;28;83194;-65
2022/03/30 05:53:55;;;;;;;20.55;9.52;;;24.30;39.40;;;;;;6154255;28;83041;-63
2022/03/30 05:57:02;;;;;;;18.95;9.35;;;24.40;39.60;;;;;;6158788;28;80237;-63
2022/03/30 06:00:02;;;;;;;15.93;9.38;;;24.30;39.30;;;;;;6142402;28;80432;-62
2022/03/30 06:03:03;;;;;;;18.50;9.55;;;24.30;39.00;;;;;;6133010;28;80986;-62
2022/03/30 06:06:03;;;;;;;15.38;8.93;;;24.30;39.10;;;;;;6148314;28;80519;-63
2022/03/30 06:09:04;;;;;;;16.35;9.25;;;24.30;38.90;;;;;;6140413;28;80285;-63
2022/03/30 06:12:05;;;;;;;17.33;9.95;;;24.30;38.90;;;;;;6148410;28;81717;-63
2022/03/30 06:15:05;;;;;;;14.95;8.98;;;24.30;39.00;;;;;;6144918;28;80479;-65
2022/03/30 06:18:10;;;;;;;19.35;9.23;;;24.30;39.00;;;;;;6141468;28;80606;-64
2022/03/30 06:21:11;;;;;;;12.40;8.17;;;24.30;38.90;;;;;;6158148;28;80540;-63
2022/03/30 06:24:12;;;;;;;20.08;9.25;;;24.30;38.70;;;;;;6164632;28;80670;-63
2022/03/30 06:27:12;;;;;;;17.40;9.05;;;24.30;38.60;;;;;;6151497;28;80481;-63
2022/03/30 06:30:13;;;;;;;17.40;8.48;;;24.30;38.50;;;;;;6161723;28;80338;-63
2022/03/30 06:33:13;;;;;;;14.23;8.20;;;24.30;38.50;;;;;;6154468;28;80341;-63
2022/03/30 06:36:14;;;;;;;14.23;9.23;;;24.30;38.50;;;;;;6147325;28;80811;-63
2022/03/30 06:39:14;;;;;;;15.43;8.85;;;24.30;38.90;;;;;;6158872;28;80683;-63
2022/03/30 06:42:16;;;;;;;14.70;8.65;;;24.30;38.70;;;;;;6154190;28;82126;-62
2022/03/30 06:45:17;;;;;;;14.07;8.32;;;24.30;38.60;;;;;;6161461;28;81057;-64
2022/03/30 06:48:17;;;;;;;13.45;8.73;;;24.30;38.70;;;;;;6156569;28;80413;-63
2022/03/30 06:51:18;;;;;;;14.32;8.48;;;24.30;38.50;;;;;;6141515;28;80934;-64
2022/03/30 06:54:19;;;;;;;19.88;8.23;;;24.30;38.60;;;;;;6159264;28;81671;-64
2022/03/30 06:57:22;;;;;;;11.23;7.43;;;24.30;38.80;;;;;;6152564;28;80382;-64
2022/03/30 07:00:22;;;;;;;16.48;8.57;;;24.30;38.60;;;;;;6155337;28;80370;-63
2022/03/30 07:03:26;;;;;;;13.20;7.85;;;24.30;38.70;;;;;;6145389;28;80915;-64
2022/03/30 07:06:26;;;;;;;14.32;7.25;;;24.30;38.90;;;;;;6159825;28;80564;-63
2022/03/30 07:12:47;;;;;;;17.10;8.48;;;24.30;38.60;;;;;;6147538;28;80489;-63
2022/03/30 07:15:47;;;;;;;15.32;7.80;;;24.30;38.40;;;;;;6152295;28;80493;-64
2022/03/30 07:18:49;;;;;;;16.33;7.88;;;24.30;38.60;;;;;;6143300;28;80886;-63
2022/03/30 07:21:49;;;;;;;14.77;7.32;;;24.30;38.90;;;;;;6145750;28;80579;-64
2022/03/30 07:24:50;;;;;;;14.07;7.43;;;24.30;39.00;;;;;;6158481;28;81128;-62
2022/03/30 07:27:51;;;;;;;13.80;8.05;;;24.30;39.20;;;;;;6140400;28;80667;-63
2022/03/30 07:30:53;;;;;;;15.10;8.25;;;24.30;39.20;;;;;;6140143;28;80526;-63
2022/03/30 07:33:54;;;;;;;15.30;8.25;;;24.40;39.30;;;;;;6144011;28;80371;-63
2022/03/30 07:36:54;;;;;;;10.07;6.78;;;24.30;39.20;;;;;;6151522;28;80444;-64
2022/03/30 07:39:55;;;;;;;11.93;7.13;;;24.30;39.20;;;;;;6136840;28;80598;-64
2022/03/30 07:42:55;;;;;;;9.55;6.43;;;24.40;39.30;;;;;;6154065;28;80322;-64
2022/03/30 07:45:57;;;;;;;15.23;6.85;;;24.40;39.10;;;;;;6157143;28;80411;-64
2022/03/30 07:48:57;;;;;;;15.45;7.53;;;24.40;39.10;;;;;;6160371;28;80601;-64
2022/03/30 07:52:00;;;;;;;11.63;6.43;;;24.40;39.00;;;;;;6159877;28;81175;-63
2022/03/30 07:55:01;;;;;;;9.15;6.72;;;24.40;38.90;;;;;;6160036;28;88143;-63
2022/03/30 07:58:01;;;;;;;10.77;6.07;;;24.40;38.90;;;;;;6160764;28;80554;-63
2022/03/30 08:01:02;;;;;;;12.70;6.50;;;24.40;38.90;;;;;;6160221;28;80790;-63
2022/03/30 08:04:02;;;;;;;8.95;6.40;;;24.40;38.80;;;;;;6145885;28;81890;-63
2022/03/30 08:07:03;;;;;;;9.98;6.35;;;24.50;38.70;;;;;;6143468;28;80657;-61
2022/03/30 08:10:03;;;;;;;12.02;6.47;;;24.50;38.70;;;;;;6159286;28;80606;-63
2022/03/30 08:13:04;;;;;;;11.10;6.50;;;24.50;38.80;;;;;;6157506;28;80104;-64
2022/03/30 08:16:04;;;;;;;9.18;5.97;;;24.50;38.90;;;;;;6157270;28;80725;-62
2022/03/30 08:19:05;;;;;;;10.13;6.63;;;24.50;38.80;;;;;;6135211;28;80352;-64
2022/03/30 08:25:25;;;;;;;11.13;6.35;;;24.50;38.90;;;;;;6146264;28;81138;-63
2022/03/30 08:28:25;;;;;;;8.80;5.90;;;24.60;39.30;;;;;;6158407;28;80609;-64
2022/03/30 08:31:26;;;;;;;11.38;6.85;;;24.60;38.70;;;;;;6146858;28;80509;-64
2022/03/30 08:34:26;;;;;;;9.68;6.75;;;24.60;38.70;;;;;;6154935;28;80302;-65
2022/03/30 08:37:27;;;;;;;10.98;6.13;;;24.60;38.90;;;;;;6154444;28;80415;-63
2022/03/30 08:40:28;;;;;;;26.20;13.88;;;24.60;39.30;;;;;;6151914;28;80526;-62
2022/03/30 08:43:29;;;;;;;17.70;9.50;;;24.60;39.50;;;;;;6154922;28;83498;-62
2022/03/30 08:46:29;;;;;;;15.05;8.95;;;24.70;39.50;;;;;;6154210;28;83881;-63
2022/03/30 08:49:37;;;;;;;18.02;8.05;;;24.70;38.40;;;;;;6156588;28;80340;-63
2022/03/30 08:52:37;;;;;;;14.90;9.10;;;24.70;38.00;;;;;;6156769;28;80499;-62
2022/03/30 08:55:38;;;;;;;13.90;8.65;;;24.70;38.10;;;;;;6158737;28;80684;-62
2022/03/30 08:58:39;;;;;;;16.83;10.35;;;24.70;38.00;;;;;;6158487;28;80625;-61
2022/03/30 09:01:39;;;;;;;17.88;8.73;;;24.70;37.70;;;;;;6149059;28;83079;-61
2022/03/30 09:04:40;;;;;;;17.13;9.05;;;24.70;37.60;;;;;;6151043;28;84189;-62
2022/03/30 09:07:40;;;;;;;14.57;9.05;;;24.70;37.40;;;;;;6156556;28;80550;-63
2022/03/30 09:10:42;;;;;;;16.30;9.32;;;24.70;37.30;;;;;;6158219;28;80630;-62
2022/03/30 09:13:42;;;;;;;14.82;8.63;;;24.70;37.10;;;;;;6152134;28;80332;-62
2022/03/30 09:16:43;;;;;;;16.23;8.77;;;24.80;37.20;;;;;;6141811;28;80787;-62
2022/03/30 09:19:44;;;;;;;11.40;7.65;;;24.80;37.10;;;;;;6147544;28;81826;-71
2022/03/30 09:22:44;;;;;;;14.50;8.13;;;24.70;37.90;;;;;;6159296;28;80224;-75
2022/03/30 09:25:45;;;;;;;12.10;7.93;;;24.80;37.70;;;;;;6159916;28;81840;-78
2022/03/30 09:28:45;;;;;;;15.32;8.77;;;24.80;37.30;;;;;;6153368;28;81433;-74
2022/03/30 09:31:46;;;;;;;11.77;7.55;;;24.80;37.30;;;;;;6137663;28;80477;-72
2022/03/30 09:34:46;;;;;;;14.45;7.97;;;24.90;36.90;;;;;;6124892;28;82036;-63
2022/03/30 09:37:47;;;;;;;15.55;10.30;;;24.90;37.00;;;;;;6134943;28;80457;-61
2022/03/30 09:40:47;;;;;;;21.30;13.13;;;24.80;34.60;;;;;;6130815;28;82826;-63
2022/03/30 09:43:48;;;;;;;15.85;9.60;;;24.40;32.80;;;;;;6131664;28;83260;-63
2022/03/30 09:46:49;;;;;;;15.15;9.40;;;24.30;34.10;;;;;;6143728;28;82906;-62
2022/03/30 09:49:49;;;;;;;16.30;10.45;;;24.30;34.80;;;;;;6160618;28;80601;-63
2022/03/30 09:52:51;;;;;;;17.17;10.52;;;24.20;33.70;;;;;;6158892;28;82775;-62
2022/03/30 09:55:51;;;;;;;15.88;10.15;;;24.10;33.60;;;;;;6158814;28;83312;-62
2022/03/30 09:58:52;;;;;;;15.05;9.93;;;24.20;34.10;;;;;;6156659;28;84510;-62
2022/03/30 10:01:52;;;;;;;18.02;10.57;;;24.30;34.00;;;;;;6138090;28;82812;-60
2022/03/30 10:04:53;;;;;;;20.60;10.02;;;24.40;33.90;;;;;;6143422;28;83021;-62
2022/03/30 10:07:55;;;;;;;16.13;10.43;;;24.40;33.80;;;;;;6151119;28;83598;-62
2022/03/30 10:10:55;;;;;;;18.23;9.80;;;24.40;33.60;;;;;;6146489;28;83183;-62
2022/03/30 10:13:56;;;;;;;14.48;9.63;;;24.40;33.50;;;;;;6161305;28;82864;-62
2022/03/30 10:16:56;;;;;;;19.85;11.30;;;24.40;33.40;;;;;;6142887;28;82413;-62
2022/03/30 10:20:01;;;;;;;15.90;9.82;;;24.40;33.00;;;;;;6150671;28;83245;-62
2022/03/30 10:23:01;;;;;;;16.85;9.98;;;24.40;33.00;;;;;;6145393;28;83051;-62
2022/03/30 10:26:03;;;;;;;16.35;10.07;;;24.40;32.70;;;;;;6144503;28;82964;-62
2022/03/30 10:29:03;;;;;;;20.67;11.52;;;24.40;33.20;;;;;;6143755;28;82964;-62
2022/03/30 10:32:04;;;;;;;18.42;10.15;;;24.50;32.50;;;;;;6133654;28;82915;-62
2022/03/30 10:35:05;;;;;;;16.10;9.45;;;24.40;32.40;;;;;;6146246;28;83194;-61
2022/03/30 10:38:05;;;;;;;14.52;9.98;;;24.50;32.50;;;;;;6161462;28;82851;-62
2022/03/30 10:41:06;;;;;;;19.00;10.80;;;24.40;32.50;;;;;;6158306;28;86925;-62
2022/03/30 10:44:06;;;;;;;17.25;9.77;;;24.40;32.80;;;;;;6150500;28;83422;-63
2022/03/30 10:47:07;;;;;;;16.52;9.40;;;24.40;32.80;;;;;;6138370;28;83068;-62
2022/03/30 10:50:08;;;;;;;14.90;9.70;;;24.40;33.00;;;;;;6151922;28;80906;-63
2022/03/30 10:53:09;;;;;;;15.43;8.35;;;24.40;32.90;;;;;;6158536;28;80201;-63
2022/03/30 10:56:09;;;;;;;16.55;9.23;;;24.60;33.10;;;;;;6158730;28;80345;-62
2022/03/30 10:59:10;;;;;;;15.90;9.23;;;24.50;33.10;;;;;;6156670;28;81589;-63
2022/03/30 11:02:11;;;;;;;13.18;8.10;;;24.60;33.10;;;;;;6146863;28;80473;-62
2022/03/30 11:05:11;;;;;;;14.77;9.43;;;24.60;33.30;;;;;;6146960;28;81437;-62
2022/03/30 11:08:13;;;;;;;12.15;8.35;;;24.60;32.90;;;;;;6153899;28;81963;-61
2022/03/30 11:11:13;;;;;;;11.38;8.35;;;24.60;32.80;;;;;;6142100;28;81548;-63
2022/03/30 11:14:14;;;;;;;19.90;9.18;;;24.70;32.80;;;;;;6136142;28;80660;-63
2022/03/30 11:17:15;;;;;;;14.40;8.85;;;24.70;32.60;;;;;;6160146;28;80877;-63
2022/03/30 11:20:16;;;;;;;19.42;9.85;;;24.70;32.60;;;;;;6160576;28;80455;-64
2022/03/30 11:23:17;;;;;;;17.15;9.48;;;24.70;32.30;;;;;;6159392;28;80307;-63
2022/03/30 11:26:17;;;;;;;18.95;10.07;;;24.70;32.60;;;;;;6140780;28;81398;-64
2022/03/30 11:29:18;;;;;;;12.98;7.35;;;24.70;32.90;;;;;;6139684;28;83261;-64
2022/03/30 11:32:18;;;;;;;17.58;9.35;;;24.60;32.90;;;;;;6160238;28;83288;-63
2022/03/30 11:35:19;;;;;;;15.60;9.18;;;24.60;32.80;;;;;;6150111;28;80407;-61
2022/03/30 11:38:23;;;;;;;12.25;8.55;;;24.60;33.00;;;;;;6150365;28;80991;-61
2022/03/30 11:41:24;;;;;;;15.00;9.20;;;24.60;33.40;;;;;;6149833;28;80470;-62
2022/03/30 11:47:43;;;;;;;15.45;9.30;;;24.60;33.30;;;;;;6161813;28;80607;-62
2022/03/30 11:50:44;;;;;;;15.55;8.77;;;24.60;33.50;;;;;;6152647;28;81364;-61
2022/03/30 11:53:46;;;;;;;20.60;8.60;;;24.60;33.60;;;;;;6148660;28;80610;-63
2022/03/30 11:56:46;;;;;;;14.38;8.40;;;24.60;33.50;;;;;;6160107;28;81339;-61
2022/03/30 11:59:47;;;;;;;17.10;8.65;;;24.50;33.30;;;;;;6140627;28;80549;-61
2022/03/30 12:02:47;;;;;;;19.15;9.32;;;24.40;33.10;;;;;;6141695;28;82004;-63
2022/03/30 12:05:51;;;;;;;15.85;8.20;;;24.50;33.10;;;;;;6153472;28;80378;-62
2022/03/30 12:08:52;;;;;;;15.20;8.73;;;24.40;33.20;;;;;;6159502;28;80097;-64
2022/03/30 12:11:52;;;;;;;14.50;9.50;;;24.40;33.40;;;;;;6140967;28;80601;-62
2022/03/30 12:14:53;;;;;;;15.15;8.93;;;24.40;33.40;;;;;;6135923;28;81719;-61
2022/03/30 12:17:54;;;;;;;16.13;9.07;;;24.40;33.80;;;;;;6153171;28;81247;-63
2022/03/30 12:20:54;;;;;;;14.30;8.90;;;24.40;33.90;;;;;;6157396;28;80595;-63
2022/03/30 12:23:55;;;;;;;13.85;8.70;;;24.40;34.00;;;;;;6145284;28;80505;-61
2022/03/30 12:26:55;;;;;;;17.77;9.13;;;24.40;33.80;;;;;;6142875;28;81646;-62
2022/03/30 12:29:56;;;;;;;12.43;8.98;;;24.40;33.70;;;;;;6152131;28;81384;-63
2022/03/30 12:32:56;;;;;;;16.13;9.65;;;24.40;33.80;;;;;;6149208;28;81746;-62
2022/03/30 12:35:57;;;;;;;20.63;10.18;;;24.40;33.80;;;;;;6152608;28;80611;-63
2022/03/30 12:38:57;;;;;;;15.32;9.27;;;24.40;33.70;;;;;;6143566;28;82961;-63
2022/03/30 12:41:58;;;;;;;12.13;8.00;;;24.40;33.70;;;;;;6156041;28;83383;-62
2022/03/30 12:44:58;;;;;;;11.85;8.45;;;24.40;33.80;;;;;;6156014;28;82058;-75
2022/03/30 12:48:01;;;;;;;20.48;9.02;;;24.30;33.60;;;;;;6144570;28;80235;-63
2022/03/30 12:51:02;;;;;;;13.70;8.25;;;24.30;34.00;;;;;;6143823;28;80113;-62
2022/03/30 12:54:03;;;;;;;16.13;8.18;;;24.40;34.10;;;;;;6158643;28;80839;-62
2022/03/30 12:57:03;;;;;;;14.10;8.77;;;24.40;34.40;;;;;;6146038;28;80978;-63
2022/03/30 13:00:04;;;;;;;14.48;8.38;;;24.40;34.10;;;;;;6147966;28;79994;-62
2022/03/30 13:03:05;;;;;;;11.75;8.32;;;24.40;34.30;;;;;;6158127;28;80643;-62
2022/03/30 13:06:07;;;;;;;21.17;9.60;;;24.40;34.60;;;;;;6157670;28;81464;-64
2022/03/30 13:09:07;;;;;;;15.63;8.65;;;24.40;34.80;;;;;;6158656;28;80745;-63
2022/03/30 13:12:08;;;;;;;15.70;8.52;;;24.40;34.80;;;;;;6158169;28;80462;-63
2022/03/30 13:15:08;;;;;;;12.80;7.88;;;24.40;34.80;;;;;;6158159;28;79907;-64
2022/03/30 13:18:10;;;;;;;14.23;8.65;;;24.40;34.70;;;;;;6150145;28;80231;-64
2022/03/30 13:21:10;;;;;;;12.90;8.38;;;24.40;34.60;;;;;;6150763;28;81952;-64
2022/03/30 13:24:11;;;;;;;11.10;8.18;;;24.30;34.30;;;;;;6148236;28;80819;-64
2022/03/30 13:27:12;;;;;;;13.55;8.20;;;24.30;34.10;;;;;;6154007;28;83395;-65
2022/03/30 13:30:13;;;;;;;12.82;7.88;;;24.30;33.90;;;;;;6139002;28;80906;-64
2022/03/30 13:33:13;;;;;;;15.98;7.40;;;24.30;34.20;;;;;;6151270;28;80907;-63
2022/03/30 13:36:14;;;;;;;10.77;7.25;;;24.30;34.20;;;;;;6147989;28;80615;-63
2022/03/30 13:39:18;;;;;;;13.77;7.95;;;24.30;34.40;;;;;;6137903;28;80622;-64
2022/03/30 13:42:19;;;;;;;17.08;7.70;;;24.30;34.40;;;;;;6140916;28;80530;-63
2022/03/30 13:45:19;;;;;;;11.20;7.40;;;24.30;34.20;;;;;;6138370;28;81183;-64
2022/03/30 13:48:20;;;;;;;9.85;7.28;;;24.30;33.90;;;;;;6158886;28;80564;-63
2022/03/30 13:51:20;;;;;;;12.23;7.05;;;24.20;33.90;;;;;;6154798;28;81353;-63
2022/03/30 13:54:21;;;;;;;11.77;7.75;;;24.30;34.00;;;;;;6157443;28;80418;-63
2022/03/30 13:57:22;;;;;;;11.95;7.25;;;24.20;34.00;;;;;;6143215;28;80800;-63
2022/03/30 14:00:23;;;;;;;11.25;6.78;;;24.30;34.10;;;;;;6162557;28;80373;-63
2022/03/30 14:03:26;;;;;;;8.90;5.85;;;24.30;34.20;;;;;;6149315;28;80450;-62
2022/03/30 14:06:27;;;;;;;8.90;6.22;;;24.30;34.30;;;;;;6138121;28;80114;-63
2022/03/30 14:09:31;;;;;;;13.75;7.13;;;24.20;34.10;;;;;;6158667;28;80067;-63
2022/03/30 14:12:32;;;;;;;11.35;6.25;;;24.30;34.00;;;;;;6147580;28;81560;-64
2022/03/30 14:15:33;;;;;;;10.05;6.97;;;24.20;34.00;;;;;;6137840;28;80485;-63
2022/03/30 14:18:33;;;;;;;9.60;6.32;;;24.20;34.00;;;;;;6147271;28;80216;-64
2022/03/30 14:21:34;;;;;;;11.05;7.35;;;24.20;34.10;;;;;;6154898;28;80414;-63
2022/03/30 14:24:34;;;;;;;11.45;6.10;;;24.20;34.10;;;;;;6139922;28;81302;-64
2022/03/30 14:27:35;;;;;;;13.13;6.90;;;24.20;34.10;;;;;;6138229;28;80506;-65
2022/03/30 14:30:36;;;;;;;9.30;6.28;;;24.20;34.20;;;;;;6161147;28;80252;-65
2022/03/30 14:33:36;;;;;;;10.25;6.90;;;24.10;34.00;;;;;;6157113;28;80515;-64
2022/03/30 14:36:37;;;;;;;9.00;6.47;;;24.10;34.00;;;;;;6139527;28;80890;-63
2022/03/30 14:39:37;;;;;;;11.02;6.20;;;24.10;34.10;;;;;;6152018;28;80418;-64
2022/03/30 14:42:38;;;;;;;10.48;6.80;;;24.10;34.20;;;;;;6137281;28;80402;-66
2022/03/30 14:45:39;;;;;;;29.08;15.60;;;24.10;34.20;;;;;;6154772;28;80345;-64
2022/03/30 14:48:39;;;;;;;47.53;25.70;;;23.80;35.10;;;;;;6156179;28;84120;-65
2022/03/30 14:51:40;;;;;;;96.82;46.65;;;23.70;35.70;;;;;;6145348;28;83053;-64
2022/03/30 14:54:41;;;;;;;114.00;58.45;;;23.70;36.10;;;;;;6157719;28;87298;-64
2022/03/30 14:57:41;;;;;;;116.70;58.50;;;23.60;36.60;;;;;;6158040;28;83326;-68
2022/03/30 15:00:42;;;;;;;146.57;71.32;;;23.60;36.60;;;;;;6139342;28;83066;-65
2022/03/30 15:03:45;;;;;;;191.18;89.70;;;23.50;36.80;;;;;;6150776;28;83303;-65
2022/03/30 15:06:45;;;;;;;152.20;72.18;;;23.60;37.00;;;;;;6156892;28;84006;-62
2022/03/30 15:09:46;;;;;;;131.45;59.50;;;23.40;37.00;;;;;;6150241;28;83229;-65
2022/03/30 15:12:46;;;;;;;104.32;50.47;;;23.40;37.00;;;;;;6149076;28;83423;-68
2022/03/30 15:15:47;;;;;;;93.63;44.42;;;23.30;37.10;;;;;;6148848;28;84543;-64
2022/03/30 15:18:47;;;;;;;78.95;38.17;;;23.30;37.70;;;;;;6149308;28;87319;-62
2022/03/30 15:21:48;;;;;;;76.18;33.92;;;23.30;38.10;;;;;;6149299;28;84478;-64
2022/03/30 15:24:49;;;;;;;62.53;31.83;;;23.40;37.90;;;;;;6152601;28;82949;-64
2022/03/30 15:27:51;;;;;;;53.70;28.27;;;23.50;37.40;;;;;;6146187;28;83401;-64
2022/03/30 15:30:51;;;;;;;61.60;26.70;;;23.60;36.90;;;;;;6152626;28;88263;-64
2022/03/30 15:33:52;;;;;;;43.10;22.27;;;23.70;36.70;;;;;;6153512;28;83839;-65
2022/03/30 15:36:53;;;;;;;40.70;20.35;;;23.80;35.90;;;;;;6151838;28;83027;-65
2022/03/30 15:39:53;;;;;;;37.92;18.58;;;23.80;35.50;;;;;;6138482;28;83632;-65